Burrwood, Louisiana
Current Conditions -  °F | °C
As of 12:51 AM on Wednesday 26 Nov 2014 (Local Time) from KBVE Reporting Station
Clear Clear  
Wind Chill: 50°   Ceiling: Unl
Heat Index: 50°   Visibility: 10mi
Dew Point: 36°   Wind: 13mph
Humidity: 59%   Direction: 330°NNW
Pressure: 30.21"   Gusts: NA
Location:  29.2037°N, 89.3875°W
Report Text: KBVE 260651Z AUTO 33011KT 10SM CLR 10/02 A3021 RMK AO2 SLP229 T01000022
Loading
Personal Weather Stations






























Interactive Weather Map New forecast layout! Learn more

10-Day Weather Forecast

Advertisements
Track Severe Weather on mobile